sensor_id;sensor_type;location;lat;lon;timestamp;P1;durP1;ratioP1;P2;durP2;ratioP2
46122;SDS011;31856;-35.404;149.120;2022-08-01T02:33:52;0.70;;;0.40;;
46122;SDS011;31856;-35.404;149.120;2022-08-01T02:36:30;1.95;;;0.40;;
46122;SDS011;31856;-35.404;149.120;2022-08-01T02:39:53;1.10;;;0.65;;
46122;SDS011;31856;-35.404;149.120;2022-08-01T02:46:49;1.20;;;0.50;;
46122;SDS011;31856;-35.404;149.120;2022-08-01T03:03:23;0.45;;;0.40;;
46122;SDS011;31856;-35.404;149.120;2022-08-01T03:05:54;1.38;;;0.50;;
46122;SDS011;31856;-35.404;149.120;2022-08-01T03:08:25;1.25;;;0.40;;
46122;SDS011;31856;-35.404;149.120;2022-08-01T03:10:56;0.40;;;0.40;;
46122;SDS011;31856;-35.404;149.120;2022-08-01T03:13:27;0.32;;;0.30;;
46122;SDS011;31856;-35.404;149.120;2022-08-01T03:15:58;0.65;;;0.35;;
46122;SDS011;31856;-35.404;149.120;2022-08-01T03:38:34;1.73;;;0.40;;
46122;SDS011;31856;-35.404;149.120;2022-08-01T03:41:26;1.40;;;0.40;;
46122;SDS011;31856;-35.404;149.120;2022-08-01T03:48:13;0.88;;;0.40;;
46122;SDS011;31856;-35.404;149.120;2022-08-01T03:50:45;2.05;;;0.60;;
46122;SDS011;31856;-35.404;149.120;2022-08-01T03:53:22;0.70;;;0.30;;
46122;SDS011;31856;-35.404;149.120;2022-08-01T03:55:54;0.57;;;0.53;;
46122;SDS011;31856;-35.404;149.120;2022-08-01T03:58:25;1.02;;;0.43;;
46122;SDS011;31856;-35.404;149.120;2022-08-01T04:00:56;1.75;;;0.40;;
46122;SDS011;31856;-35.404;149.120;2022-08-01T04:03:26;0.50;;;0.40;;
46122;SDS011;31856;-35.404;149.120;2022-08-01T04:06:07;0.50;;;0.40;;
46122;SDS011;31856;-35.404;149.120;2022-08-01T04:08:39;0.47;;;0.40;;
46122;SDS011;31856;-35.404;149.120;2022-08-01T04:28:37;0.40;;;0.30;;
46122;SDS011;31856;-35.404;149.120;2022-08-01T04:34:39;0.43;;;0.40;;
46122;SDS011;31856;-35.404;149.120;2022-08-01T04:37:10;1.58;;;0.45;;
46122;SDS011;31856;-35.404;149.120;2022-08-01T05:28:39;1.02;;;0.50;;
46122;SDS011;31856;-35.404;149.120;2022-08-01T05:37:44;1.02;;;0.70;;
46122;SDS011;31856;-35.404;149.120;2022-08-01T05:43:30;1.67;;;0.47;;
46122;SDS011;31856;-35.404;149.120;2022-08-01T05:46:00;0.80;;;0.50;;
46122;SDS011;31856;-35.404;149.120;2022-08-01T05:48:30;0.70;;;0.60;;
46122;SDS011;31856;-35.404;149.120;2022-08-01T05:51:00;0.68;;;0.50;;
46122;SDS011;31856;-35.404;149.120;2022-08-01T05:53:30;0.82;;;0.60;;
46122;SDS011;31856;-35.404;149.120;2022-08-01T05:56:03;1.58;;;0.60;;
46122;SDS011;31856;-35.404;149.120;2022-08-01T05:58:33;1.23;;;0.55;;
46122;SDS011;31856;-35.404;149.120;2022-08-01T06:01:03;1.25;;;0.50;;
46122;SDS011;31856;-35.404;149.120;2022-08-01T06:06:34;0.93;;;0.50;;
46122;SDS011;31856;-35.404;149.120;2022-08-01T06:09:13;1.50;;;0.47;;
46122;SDS011;31856;-35.404;149.120;2022-08-01T06:11:43;0.55;;;0.40;;
46122;SDS011;31856;-35.404;149.120;2022-08-01T06:14:13;0.70;;;0.40;;
46122;SDS011;31856;-35.404;149.120;2022-08-01T06:16:44;0.63;;;0.60;;
46122;SDS011;31856;-35.404;149.120;2022-08-01T06:19:14;1.58;;;0.50;;
46122;SDS011;31856;-35.404;149.120;2022-08-01T06:21:44;0.52;;;0.40;;
46122;SDS011;31856;-35.404;149.120;2022-08-01T06:24:41;2.30;;;0.50;;
46122;SDS011;31856;-35.404;149.120;2022-08-01T06:27:11;1.90;;;0.52;;
46122;SDS011;31856;-35.404;149.120;2022-08-01T06:29:48;0.68;;;0.50;;
46122;SDS011;31856;-35.404;149.120;2022-08-01T06:32:21;0.73;;;0.52;;
46122;SDS011;31856;-35.404;149.120;2022-08-01T06:34:54;0.80;;;0.50;;
46122;SDS011;31856;-35.404;149.120;2022-08-01T06:37:27;1.00;;;0.50;;
46122;SDS011;31856;-35.404;149.120;2022-08-01T06:40:06;0.82;;;0.50;;
46122;SDS011;31856;-35.404;149.120;2022-08-01T07:02:20;1.77;;;0.77;;
46122;SDS011;31856;-35.404;149.120;2022-08-01T07:05:44;2.75;;;0.50;;
46122;SDS011;31856;-35.404;149.120;2022-08-01T07:18:49;1.83;;;0.60;;
46122;SDS011;31856;-35.404;149.120;2022-08-01T07:21:22;2.80;;;0.75;;
46122;SDS011;31856;-35.404;149.120;2022-08-01T07:34:49;1.02;;;0.73;;
46122;SDS011;31856;-35.404;149.120;2022-08-01T07:37:19;0.95;;;0.50;;
46122;SDS011;31856;-35.404;149.120;2022-08-01T07:40:10;1.45;;;0.70;;
46122;SDS011;31856;-35.404;149.120;2022-08-01T07:42:40;1.73;;;0.80;;
46122;SDS011;31856;-35.404;149.120;2022-08-01T07:45:12;1.92;;;0.60;;
46122;SDS011;31856;-35.404;149.120;2022-08-01T07:47:43;3.45;;;0.70;;
46122;SDS011;31856;-35.404;149.120;2022-08-01T07:50:13;0.90;;;0.60;;
46122;SDS011;31856;-35.404;149.120;2022-08-01T07:52:43;1.00;;;0.60;;
46122;SDS011;31856;-35.404;149.120;2022-08-01T07:55:13;0.80;;;0.57;;
46122;SDS011;31856;-35.404;149.120;2022-08-01T07:57:43;1.13;;;0.70;;
46122;SDS011;31856;-35.404;149.120;2022-08-01T08:00:26;0.77;;;0.55;;
46122;SDS011;31856;-35.404;149.120;2022-08-01T08:02:56;3.50;;;0.70;;
46122;SDS011;31856;-35.404;149.120;2022-08-01T08:05:27;1.35;;;0.50;;
46122;SDS011;31856;-35.404;149.120;2022-08-01T11:01:37;2.00;;;0.60;;
46122;SDS011;31856;-35.404;149.120;2022-08-01T11:04:12;1.25;;;0.50;;
46122;SDS011;31856;-35.404;149.120;2022-08-01T11:09:42;2.15;;;0.57;;
46122;SDS011;31856;-35.404;149.120;2022-08-01T11:15:34;2.05;;;0.57;;
46122;SDS011;31856;-35.404;149.120;2022-08-01T11:18:31;2.85;;;0.90;;
46122;SDS011;31856;-35.404;149.120;2022-08-01T11:27:28;2.75;;;1.20;;
46122;SDS011;31856;-35.404;149.120;2022-08-01T11:32:49;1.77;;;0.50;;
46122;SDS011;31856;-35.404;149.120;2022-08-01T11:35:37;2.25;;;0.50;;
46122;SDS011;31856;-35.404;149.120;2022-08-01T11:38:27;1.60;;;1.00;;
46122;SDS011;31856;-35.404;149.120;2022-08-01T11:46:47;3.13;;;0.70;;
46122;SDS011;31856;-35.404;149.120;2022-08-01T11:52:06;2.15;;;0.60;;
46122;SDS011;31856;-35.404;149.120;2022-08-01T11:54:40;2.67;;;0.80;;
46122;SDS011;31856;-35.404;149.120;2022-08-01T12:02:44;3.83;;;0.60;;
46122;SDS011;31856;-35.404;149.120;2022-08-01T12:05:15;2.15;;;0.70;;
46122;SDS011;31856;-35.404;149.120;2022-08-01T12:07:51;1.38;;;0.70;;
46122;SDS011;31856;-35.404;149.120;2022-08-01T12:13:29;2.45;;;0.50;;
46122;SDS011;31856;-35.404;149.120;2022-08-01T12:16:09;2.75;;;0.70;;
46122;SDS011;31856;-35.404;149.120;2022-08-01T12:18:40;2.00;;;0.60;;
46122;SDS011;31856;-35.404;149.120;2022-08-01T12:21:10;1.15;;;0.60;;
46122;SDS011;31856;-35.404;149.120;2022-08-01T12:23:40;3.13;;;0.52;;
46122;SDS011;31856;-35.404;149.120;2022-08-01T12:26:10;1.23;;;0.70;;
46122;SDS011;31856;-35.404;149.120;2022-08-01T12:28:58;1.98;;;0.70;;
46122;SDS011;31856;-35.404;149.120;2022-08-01T12:31:34;1.77;;;0.63;;
46122;SDS011;31856;-35.404;149.120;2022-08-01T12:37:06;2.30;;;0.80;;
46122;SDS011;31856;-35.404;149.120;2022-08-01T12:39:37;3.35;;;0.68;;
46122;SDS011;31856;-35.404;149.120;2022-08-01T12:42:08;1.55;;;0.60;;
46122;SDS011;31856;-35.404;149.120;2022-08-01T12:44:39;2.03;;;0.80;;
46122;SDS011;31856;-35.404;149.120;2022-08-01T12:47:09;2.97;;;1.00;;
46122;SDS011;31856;-35.404;149.120;2022-08-01T12:49:41;1.52;;;0.70;;
46122;SDS011;31856;-35.404;149.120;2022-08-01T12:52:12;3.30;;;0.70;;
46122;SDS011;31856;-35.404;149.120;2022-08-01T12:57:21;2.17;;;1.17;;
46122;SDS011;31856;-35.404;149.120;2022-08-01T13:02:38;1.70;;;0.85;;
46122;SDS011;31856;-35.404;149.120;2022-08-01T13:05:09;4.38;;;1.92;;
46122;SDS011;31856;-35.404;149.120;2022-08-01T13:07:45;1.92;;;0.95;;
46122;SDS011;31856;-35.404;149.120;2022-08-01T13:10:29;3.47;;;1.05;;
46122;SDS011;31856;-35.404;149.120;2022-08-01T13:12:59;1.33;;;0.80;;
46122;SDS011;31856;-35.404;149.120;2022-08-01T13:15:30;3.00;;;0.60;;
46122;SDS011;31856;-35.404;149.120;2022-08-01T13:18:01;1.27;;;0.60;;
46122;SDS011;31856;-35.404;149.120;2022-08-01T13:23:40;1.85;;;0.70;;
46122;SDS011;31856;-35.404;149.120;2022-08-01T13:29:18;3.15;;;0.90;;
46122;SDS011;31856;-35.404;149.120;2022-08-01T13:31:49;3.00;;;1.02;;
46122;SDS011;31856;-35.404;149.120;2022-08-01T13:34:30;4.50;;;0.93;;
46122;SDS011;31856;-35.404;149.120;2022-08-01T13:37:01;1.50;;;0.70;;
46122;SDS011;31856;-35.404;149.120;2022-08-01T13:39:31;2.50;;;0.77;;
46122;SDS011;31856;-35.404;149.120;2022-08-01T13:42:13;2.63;;;0.70;;
46122;SDS011;31856;-35.404;149.120;2022-08-01T13:44:45;2.83;;;0.70;;
46122;SDS011;31856;-35.404;149.120;2022-08-01T13:47:15;3.33;;;0.77;;
46122;SDS011;31856;-35.404;149.120;2022-08-01T13:49:56;4.63;;;0.80;;
46122;SDS011;31856;-35.404;149.120;2022-08-01T13:52:29;1.13;;;0.50;;
46122;SDS011;31856;-35.404;149.120;2022-08-01T13:54:59;5.13;;;0.70;;
46122;SDS011;31856;-35.404;149.120;2022-08-01T15:36:27;10.50;;;2.80;;
46122;SDS011;31856;-35.404;149.120;2022-08-01T15:38:57;4.47;;;1.60;;
46122;SDS011;31856;-35.404;149.120;2022-08-01T15:41:27;3.88;;;1.20;;
46122;SDS011;31856;-35.404;149.120;2022-08-01T15:43:57;4.22;;;1.38;;
46122;SDS011;31856;-35.404;149.120;2022-08-01T15:46:27;7.63;;;1.67;;
46122;SDS011;31856;-35.404;149.120;2022-08-01T15:48:58;3.67;;;0.95;;
46122;SDS011;31856;-35.404;149.120;2022-08-01T15:51:31;5.70;;;1.48;;
46122;SDS011;31856;-35.404;149.120;2022-08-01T15:54:01;2.85;;;1.00;;
46122;SDS011;31856;-35.404;149.120;2022-08-01T15:56:40;2.25;;;1.00;;
46122;SDS011;31856;-35.404;149.120;2022-08-01T15:59:10;2.33;;;0.90;;
46122;SDS011;31856;-35.404;149.120;2022-08-01T16:01:40;2.13;;;1.23;;
46122;SDS011;31856;-35.404;149.120;2022-08-01T16:04:10;3.28;;;1.40;;
46122;SDS011;31856;-35.404;149.120;2022-08-01T16:06:40;3.33;;;1.17;;
46122;SDS011;31856;-35.404;149.120;2022-08-01T16:09:10;2.47;;;1.17;;
46122;SDS011;31856;-35.404;149.120;2022-08-01T16:11:45;3.58;;;1.30;;
46122;SDS011;31856;-35.404;149.120;2022-08-01T16:14:16;2.00;;;1.08;;
46122;SDS011;31856;-35.404;149.120;2022-08-01T16:16:48;2.70;;;1.08;;
46122;SDS011;31856;-35.404;149.120;2022-08-01T16:19:19;3.35;;;1.10;;
46122;SDS011;31856;-35.404;149.120;2022-08-01T16:21:49;3.53;;;1.17;;
46122;SDS011;31856;-35.404;149.120;2022-08-01T16:24:20;2.50;;;0.90;;
46122;SDS011;31856;-35.404;149.120;2022-08-01T16:26:50;2.38;;;1.00;;
46122;SDS011;31856;-35.404;149.120;2022-08-01T16:29:20;3.78;;;1.42;;
46122;SDS011;31856;-35.404;149.120;2022-08-01T16:31:50;1.60;;;0.80;;
46122;SDS011;31856;-35.404;149.120;2022-08-01T16:34:40;3.00;;;1.48;;
46122;SDS011;31856;-35.404;149.120;2022-08-01T16:37:13;2.78;;;0.82;;
46122;SDS011;31856;-35.404;149.120;2022-08-01T16:39:43;4.15;;;0.90;;
46122;SDS011;31856;-35.404;149.120;2022-08-01T16:42:14;6.65;;;1.45;;
46122;SDS011;31856;-35.404;149.120;2022-08-01T16:44:44;3.85;;;1.20;;
46122;SDS011;31856;-35.404;149.120;2022-08-01T16:47:15;4.78;;;1.42;;
46122;SDS011;31856;-35.404;149.120;2022-08-01T16:49:45;8.15;;;1.80;;
46122;SDS011;31856;-35.404;149.120;2022-08-01T16:52:15;5.75;;;1.35;;
46122;SDS011;31856;-35.404;149.120;2022-08-01T16:54:45;5.25;;;1.25;;
46122;SDS011;31856;-35.404;149.120;2022-08-01T16:57:15;3.88;;;1.10;;
46122;SDS011;31856;-35.404;149.120;2022-08-01T16:59:46;4.03;;;1.02;;
46122;SDS011;31856;-35.404;149.120;2022-08-01T17:02:16;2.20;;;1.00;;
